createdAt,value
2022-08-03T00:03:49.017Z,1.35
2022-08-03T00:08:42.477Z,1.50
2022-08-03T00:13:36.378Z,1.55
2022-08-03T00:18:29.846Z,3.15
2022-08-03T00:23:24.809Z,1.20
2022-08-03T00:28:17.976Z,1.20
2022-08-03T00:33:12.725Z,1.20
2022-08-03T00:38:08.789Z,1.20
2022-08-03T00:43:06.937Z,0.98
2022-08-03T00:48:01.944Z,1.20
2022-08-03T00:52:59.123Z,1.20
2022-08-03T00:57:52.571Z,1.25
2022-08-03T01:02:45.941Z,1.10
2022-08-03T01:07:59.994Z,1.02
2022-08-03T01:14:00.961Z,1.00
2022-08-03T01:19:31.476Z,0.90
2022-08-03T01:24:49.656Z,1.38
2022-08-03T01:29:50.580Z,0.98
2022-08-03T01:34:53.848Z,1.15
2022-08-03T01:39:48.095Z,1.00
2022-08-03T01:44:45.913Z,0.90
2022-08-03T01:49:45.941Z,1.20
2022-08-03T01:54:44.341Z,0.98
2022-08-03T01:59:40.125Z,1.25
2022-08-03T02:04:34.844Z,1.00
2022-08-03T02:09:30.200Z,0.90
2022-08-03T02:14:24.761Z,1.00
2022-08-03T02:19:19.097Z,1.20
2022-08-03T02:24:11.974Z,0.90
2022-08-03T02:29:12.796Z,1.05
2022-08-03T02:34:13.197Z,1.00
2022-08-03T02:39:08.853Z,0.90
2022-08-03T02:44:08.468Z,1.05
2022-08-03T02:49:50.776Z,1.17
2022-08-03T02:54:19.356Z,1.63
2022-08-03T02:59:14.774Z,2.80
2022-08-03T03:04:09.023Z,3.28
2022-08-03T03:09:03.286Z,2.70
2022-08-03T03:13:58.356Z,2.13
2022-08-03T03:18:53.128Z,2.22
2022-08-03T03:23:47.092Z,1.80
2022-08-03T03:28:40.529Z,1.95
2022-08-03T03:33:38.636Z,2.10
2022-08-03T03:38:33.845Z,2.05
2022-08-03T03:43:27.385Z,1.70
2022-08-03T03:48:25.716Z,1.67
2022-08-03T03:53:19.905Z,1.65
2022-08-03T03:58:14.037Z,1.88
2022-08-03T04:03:07.701Z,1.63
2022-08-03T04:08:24.359Z,1.73
2022-08-03T04:13:19.347Z,1.42
2022-08-03T04:18:19.978Z,1.50
2022-08-03T04:23:15.569Z,1.75
2022-08-03T04:28:30.835Z,1.52
2022-08-03T04:33:25.262Z,1.83
2022-08-03T04:43:20.425Z,1.33
2022-08-03T04:48:19.191Z,1.90
2022-08-03T04:53:13.045Z,1.60
2022-08-03T04:58:07.253Z,1.52
2022-08-03T05:03:01.237Z,1.83
2022-08-03T05:07:56.724Z,1.50
2022-08-03T05:12:52.158Z,1.67
2022-08-03T05:17:45.400Z,1.70
2022-08-03T05:22:38.236Z,1.63
2022-08-03T05:27:31.945Z,2.50
2022-08-03T05:32:26.039Z,1.50
2022-08-03T05:37:19.669Z,1.60
2022-08-03T05:42:16.454Z,1.42
2022-08-03T05:47:10.618Z,1.90
2022-08-03T05:52:21.326Z,1.75
2022-08-03T05:57:15.885Z,1.30
2022-08-03T06:02:09.939Z,2.03
2022-08-03T06:07:03.954Z,1.70
2022-08-03T06:11:58.098Z,1.40
2022-08-03T06:16:51.631Z,1.60
2022-08-03T06:21:45.397Z,1.40
2022-08-03T06:26:40.659Z,1.70
2022-08-03T06:31:33.835Z,1.27
2022-08-03T06:36:31.612Z,1.20
2022-08-03T06:41:26.747Z,1.40
2022-08-03T06:46:20.697Z,1.77
2022-08-03T06:51:15.189Z,1.60
2022-08-03T06:56:10.008Z,1.45
2022-08-03T07:01:04.074Z,1.25
2022-08-03T07:05:57.241Z,1.50
2022-08-03T07:10:51.000Z,1.40
2022-08-03T07:15:55.508Z,1.30
2022-08-03T07:20:49.564Z,1.25
2022-08-03T07:25:43.851Z,1.30
2022-08-03T07:30:38.197Z,1.20
2022-08-03T07:35:32.218Z,1.77
2022-08-03T07:40:27.008Z,1.30
2022-08-03T07:45:26.551Z,1.58
2022-08-03T07:50:20.517Z,1.38
2022-08-03T07:55:18.138Z,1.45
2022-08-03T08:00:18.101Z,1.10
2022-08-03T08:05:11.395Z,1.38
2022-08-03T08:10:08.632Z,0.95
2022-08-03T08:15:02.389Z,1.35
2022-08-03T08:19:56.674Z,1.30
2022-08-03T08:24:51.764Z,1.60
2022-08-03T08:29:52.651Z,1.52
2022-08-03T08:34:49.971Z,1.52
2022-08-03T08:39:44.117Z,1.40
2022-08-03T08:44:38.232Z,1.40
2022-08-03T08:49:36.900Z,1.60
2022-08-03T08:54:32.952Z,1.58
2022-08-03T08:59:48.366Z,1.40
2022-08-03T09:04:43.192Z,2.28
2022-08-03T09:10:10.367Z,1.50
2022-08-03T09:15:07.812Z,1.48
2022-08-03T09:20:10.676Z,1.50
2022-08-03T09:25:24.482Z,1.30
2022-08-03T09:30:34.251Z,1.40
2022-08-03T09:35:51.583Z,1.50
2022-08-03T09:40:42.748Z,1.73
2022-08-03T09:45:40.064Z,1.30
2022-08-03T09:51:13.898Z,1.35
2022-08-03T09:56:34.378Z,1.50
2022-08-03T10:01:35.538Z,1.67
2022-08-03T10:06:29.621Z,1.43
2022-08-03T10:11:37.435Z,1.25
2022-08-03T10:16:41.887Z,1.27
2022-08-03T10:21:42.149Z,1.27
2022-08-03T10:26:39.865Z,1.60
2022-08-03T10:31:57.591Z,1.23
2022-08-03T10:36:56.337Z,1.15
2022-08-03T10:41:50.777Z,1.27
2022-08-03T10:46:45.501Z,1.02
2022-08-03T10:51:40.788Z,1.23
2022-08-03T10:56:51.709Z,1.10
2022-08-03T11:02:00.255Z,1.15
2022-08-03T11:07:21.728Z,1.13
2022-08-03T11:12:43.573Z,1.40
2022-08-03T11:17:46.758Z,1.08
2022-08-03T11:22:51.865Z,1.15
2022-08-03T11:28:12.423Z,0.90
2022-08-03T11:33:08.981Z,1.17
2022-08-03T11:38:07.709Z,1.00
2022-08-03T11:43:07.996Z,1.10
2022-08-03T11:48:14.680Z,1.00
2022-08-03T11:53:09.239Z,0.82
2022-08-03T11:59:02.756Z,0.90
2022-08-03T12:03:23.016Z,0.80
2022-08-03T12:08:20.091Z,1.23
2022-08-03T12:14:26.894Z,0.70
2022-08-03T12:18:27.329Z,1.02
2022-08-03T12:23:21.171Z,0.73
2022-08-03T12:28:35.998Z,0.60
2022-08-03T12:33:31.150Z,0.90
2022-08-03T12:38:25.368Z,0.98
2022-08-03T12:43:19.093Z,0.60
2022-08-03T12:48:13.371Z,0.60
2022-08-03T12:53:09.216Z,0.60
2022-08-03T12:58:07.541Z,0.80
2022-08-03T13:03:38.366Z,0.80
2022-08-03T13:08:24.139Z,0.90
2022-08-03T13:13:18.297Z,0.90
2022-08-03T13:18:12.242Z,0.70
2022-08-03T13:23:13.006Z,0.70
2022-08-03T13:28:17.361Z,0.80
2022-08-03T13:33:09.811Z,0.80
2022-08-03T13:38:03.603Z,0.77
2022-08-03T13:42:58.032Z,0.80
2022-08-03T13:47:51.419Z,0.88
2022-08-03T13:52:46.872Z,1.00
2022-08-03T13:58:03.614Z,1.05
2022-08-03T14:02:55.321Z,1.55
2022-08-03T14:07:53.013Z,1.00
2022-08-03T14:12:52.305Z,0.93
2022-08-03T14:17:49.852Z,0.95
2022-08-03T14:22:44.341Z,1.23
2022-08-03T14:27:41.435Z,1.10
2022-08-03T14:32:35.768Z,0.90
2022-08-03T14:37:30.446Z,1.00
2022-08-03T14:42:24.797Z,0.90
2022-08-03T14:47:22.034Z,1.15
2022-08-03T14:52:19.259Z,1.13
2022-08-03T14:57:17.129Z,1.20
2022-08-03T15:02:23.343Z,0.90
2022-08-03T15:07:23.033Z,1.20
2022-08-03T15:12:21.480Z,1.02
2022-08-03T15:17:20.863Z,1.10
2022-08-03T15:22:20.615Z,2.05
2022-08-03T15:27:30.085Z,1.45
2022-08-03T15:32:28.580Z,1.10
2022-08-03T15:37:27.078Z,1.02
2022-08-03T15:42:28.024Z,0.77
2022-08-03T15:47:27.779Z,1.27
2022-08-03T15:52:25.360Z,0.90
2022-08-03T15:57:19.081Z,0.80
2022-08-03T16:02:16.658Z,0.85
2022-08-03T16:07:16.839Z,0.90
2022-08-03T16:12:16.875Z,1.30
2022-08-03T16:17:16.707Z,1.20
2022-08-03T16:22:14.951Z,0.90
2022-08-03T16:27:37.419Z,1.40
2022-08-03T16:32:32.423Z,1.10
2022-08-03T16:37:38.576Z,0.85
2022-08-03T16:42:38.415Z,1.00
2022-08-03T16:47:34.538Z,1.10
2022-08-03T16:52:34.356Z,1.08
2022-08-03T16:57:58.903Z,0.90
2022-08-03T17:02:58.337Z,1.05
2022-08-03T17:07:56.689Z,0.93
2022-08-03T17:12:59.916Z,0.80
2022-08-03T17:18:09.513Z,0.93
2022-08-03T17:23:42.420Z,1.50
2022-08-03T17:28:50.106Z,1.00
2022-08-03T17:33:57.349Z,0.80
2022-08-03T17:38:59.204Z,1.20
2022-08-03T17:44:15.491Z,0.95
2022-08-03T17:49:25.187Z,0.90
2022-08-03T17:55:54.862Z,0.68
2022-08-03T18:00:36.675Z,0.95
2022-08-03T18:06:11.943Z,1.45
2022-08-03T18:11:14.876Z,0.80
2022-08-03T18:16:21.255Z,0.90
2022-08-03T18:21:20.408Z,1.10
2022-08-03T18:26:18.535Z,1.00
2022-08-03T18:32:00.299Z,0.90
2022-08-03T18:36:31.793Z,0.90
2022-08-03T18:41:32.325Z,1.00
2022-08-03T18:46:29.985Z,0.85
2022-08-03T18:51:43.313Z,0.70
2022-08-03T18:56:40.041Z,0.80
2022-08-03T19:01:59.160Z,0.90
2022-08-03T19:07:03.130Z,0.80
2022-08-03T19:12:30.687Z,0.90
2022-08-03T19:17:30.965Z,1.08
2022-08-03T19:22:27.325Z,0.98
2022-08-03T19:27:26.945Z,1.08
2022-08-03T19:32:22.320Z,0.90
2022-08-03T19:37:18.006Z,0.90
2022-08-03T19:42:23.079Z,1.05
2022-08-03T19:47:44.024Z,0.82
2022-08-03T19:52:39.136Z,0.90
2022-08-03T19:57:34.736Z,0.82
2022-08-03T20:02:29.758Z,0.90
2022-08-03T20:07:23.821Z,0.60
2022-08-03T20:12:19.534Z,1.13
2022-08-03T20:17:22.691Z,0.80
2022-08-03T20:22:39.332Z,1.02
2022-08-03T20:28:06.878Z,1.10
2022-08-03T20:32:53.498Z,0.95
2022-08-03T20:37:47.745Z,1.13
2022-08-03T20:42:39.991Z,1.10
2022-08-03T20:47:35.944Z,1.15
2022-08-03T20:52:33.569Z,0.60
2022-08-03T20:57:27.731Z,0.90
2022-08-03T21:02:29.766Z,1.08
2022-08-03T21:08:04.081Z,1.25
2022-08-03T21:13:14.914Z,1.35
2022-08-03T21:18:15.133Z,1.23
2022-08-03T21:23:12.161Z,0.85
2022-08-03T21:28:27.477Z,1.25
2022-08-03T21:33:22.365Z,0.90
2022-08-03T21:38:19.776Z,1.00
2022-08-03T21:43:13.857Z,1.10
2022-08-03T21:48:10.364Z,1.10
2022-08-03T21:53:04.609Z,1.08
2022-08-03T21:58:05.504Z,1.20
2022-08-03T22:03:15.233Z,1.00
2022-08-03T22:08:14.191Z,1.10
2022-08-03T22:13:07.839Z,1.05
2022-08-03T22:18:03.744Z,1.30
2022-08-03T22:23:02.327Z,1.20
2022-08-03T22:27:56.830Z,1.33
2022-08-03T22:32:53.494Z,1.40
2022-08-03T22:37:49.920Z,1.02
2022-08-03T22:42:47.777Z,1.13
2022-08-03T22:47:43.028Z,0.90
2022-08-03T22:52:38.616Z,1.40
2022-08-03T22:57:33.925Z,1.08
2022-08-03T23:02:30.137Z,1.13
2022-08-03T23:07:32.163Z,1.00
2022-08-03T23:12:26.680Z,1.25
2022-08-03T23:17:22.095Z,1.38
2022-08-03T23:22:29.429Z,1.15
2022-08-03T23:27:25.192Z,1.10
2022-08-03T23:32:21.331Z,1.10
2022-08-03T23:37:16.372Z,1.02
2022-08-03T23:42:12.147Z,1.17
2022-08-03T23:47:06.739Z,1.30
2022-08-03T23:52:29.144Z,1.10
2022-08-03T23:58:11.074Z,0.82
